sensor_id;sensor_type;location;lat;lon;timestamp;P1;durP1;ratioP1;P2;durP2;ratioP2
26598;SDS011;14240;51.064;16.612;2023-06-10T00:00:42;20.73;;;11.10;;
26598;SDS011;14240;51.064;16.612;2023-06-10T00:03:10;22.67;;;10.63;;
26598;SDS011;14240;51.064;16.612;2023-06-10T00:05:37;16.13;;;9.13;;
26598;SDS011;14240;51.064;16.612;2023-06-10T00:08:04;21.60;;;12.77;;
26598;SDS011;14240;51.064;16.612;2023-06-10T00:10:34;23.15;;;12.90;;
26598;SDS011;14240;51.064;16.612;2023-06-10T00:13:04;18.30;;;9.43;;
26598;SDS011;14240;51.064;16.612;2023-06-10T00:15:33;33.33;;;9.15;;
26598;SDS011;14240;51.064;16.612;2023-06-10T00:18:00;16.27;;;6.93;;
26598;SDS011;14240;51.064;16.612;2023-06-10T00:20:27;15.10;;;7.38;;
26598;SDS011;14240;51.064;16.612;2023-06-10T00:22:53;26.83;;;7.50;;
26598;SDS011;14240;51.064;16.612;2023-06-10T00:25:20;22.75;;;8.55;;
26598;SDS011;14240;51.064;16.612;2023-06-10T00:27:46;16.45;;;7.95;;
26598;SDS011;14240;51.064;16.612;2023-06-10T00:30:18;13.25;;;8.27;;
26598;SDS011;14240;51.064;16.612;2023-06-10T00:32:44;17.55;;;10.90;;
26598;SDS011;14240;51.064;16.612;2023-06-10T00:35:10;22.45;;;10.07;;
26598;SDS011;14240;51.064;16.612;2023-06-10T00:37:40;24.35;;;10.85;;
26598;SDS011;14240;51.064;16.612;2023-06-10T00:40:06;25.98;;;12.35;;
26598;SDS011;14240;51.064;16.612;2023-06-10T00:42:39;21.63;;;12.45;;
26598;SDS011;14240;51.064;16.612;2023-06-10T00:45:10;23.17;;;12.50;;
26598;SDS011;14240;51.064;16.612;2023-06-10T00:47:37;23.83;;;12.88;;
26598;SDS011;14240;51.064;16.612;2023-06-10T00:50:08;23.15;;;12.88;;
26598;SDS011;14240;51.064;16.612;2023-06-10T00:52:34;19.98;;;11.27;;
26598;SDS011;14240;51.064;16.612;2023-06-10T00:55:02;24.50;;;12.90;;
26598;SDS011;14240;51.064;16.612;2023-06-10T00:57:28;26.65;;;15.18;;
26598;SDS011;14240;51.064;16.612;2023-06-10T01:00:00;30.42;;;16.40;;
26598;SDS011;14240;51.064;16.612;2023-06-10T01:02:26;38.05;;;23.70;;
26598;SDS011;14240;51.064;16.612;2023-06-10T01:04:53;27.70;;;17.15;;
26598;SDS011;14240;51.064;16.612;2023-06-10T01:10:05;21.50;;;13.82;;
26598;SDS011;14240;51.064;16.612;2023-06-10T01:12:35;25.20;;;13.48;;
26598;SDS011;14240;51.064;16.612;2023-06-10T01:15:24;22.42;;;13.75;;
26598;SDS011;14240;51.064;16.612;2023-06-10T01:17:59;21.50;;;13.07;;
26598;SDS011;14240;51.064;16.612;2023-06-10T01:20:27;24.77;;;14.27;;
26598;SDS011;14240;51.064;16.612;2023-06-10T01:22:56;30.80;;;17.17;;
26598;SDS011;14240;51.064;16.612;2023-06-10T01:25:23;32.40;;;16.30;;
26598;SDS011;14240;51.064;16.612;2023-06-10T01:27:59;29.83;;;15.98;;
26598;SDS011;14240;51.064;16.612;2023-06-10T01:30:30;38.78;;;15.57;;
26598;SDS011;14240;51.064;16.612;2023-06-10T01:33:26;32.92;;;15.52;;
26598;SDS011;14240;51.064;16.612;2023-06-10T01:35:57;32.97;;;16.33;;
26598;SDS011;14240;51.064;16.612;2023-06-10T01:38:25;26.65;;;14.75;;
26598;SDS011;14240;51.064;16.612;2023-06-10T01:40:57;29.73;;;16.25;;
26598;SDS011;14240;51.064;16.612;2023-06-10T01:43:23;25.80;;;14.48;;
26598;SDS011;14240;51.064;16.612;2023-06-10T01:45:49;29.75;;;15.48;;
26598;SDS011;14240;51.064;16.612;2023-06-10T01:48:14;33.20;;;16.27;;
26598;SDS011;14240;51.064;16.612;2023-06-10T01:50:40;34.35;;;16.27;;
26598;SDS011;14240;51.064;16.612;2023-06-10T01:53:06;33.85;;;16.15;;
26598;SDS011;14240;51.064;16.612;2023-06-10T01:55:32;41.42;;;17.35;;
26598;SDS011;14240;51.064;16.612;2023-06-10T01:57:58;34.75;;;16.60;;
26598;SDS011;14240;51.064;16.612;2023-06-10T02:00:30;37.35;;;16.13;;
26598;SDS011;14240;51.064;16.612;2023-06-10T02:02:57;48.65;;;18.08;;
26598;SDS011;14240;51.064;16.612;2023-06-10T02:05:23;36.67;;;16.45;;
26598;SDS011;14240;51.064;16.612;2023-06-10T02:07:48;28.77;;;17.38;;
26598;SDS011;14240;51.064;16.612;2023-06-10T02:10:14;32.72;;;17.50;;
26598;SDS011;14240;51.064;16.612;2023-06-10T02:12:44;40.72;;;17.92;;
26598;SDS011;14240;51.064;16.612;2023-06-10T02:15:16;33.25;;;16.35;;
26598;SDS011;14240;51.064;16.612;2023-06-10T02:17:42;31.70;;;17.63;;
26598;SDS011;14240;51.064;16.612;2023-06-10T02:20:09;38.38;;;16.38;;
26598;SDS011;14240;51.064;16.612;2023-06-10T02:22:40;32.03;;;15.25;;
26598;SDS011;14240;51.064;16.612;2023-06-10T02:25:08;36.00;;;16.23;;
26598;SDS011;14240;51.064;16.612;2023-06-10T02:27:35;43.15;;;15.45;;
26598;SDS011;14240;51.064;16.612;2023-06-10T02:30:01;30.05;;;14.98;;
26598;SDS011;14240;51.064;16.612;2023-06-10T02:32:32;31.83;;;15.52;;
26598;SDS011;14240;51.064;16.612;2023-06-10T02:34:58;36.15;;;14.90;;
26598;SDS011;14240;51.064;16.612;2023-06-10T02:37:25;29.90;;;15.13;;
26598;SDS011;14240;51.064;16.612;2023-06-10T02:39:57;39.15;;;14.88;;
26598;SDS011;14240;51.064;16.612;2023-06-10T02:42:23;39.58;;;15.32;;
26598;SDS011;14240;51.064;16.612;2023-06-10T02:44:50;26.55;;;14.35;;
26598;SDS011;14240;51.064;16.612;2023-06-10T02:47:26;33.58;;;15.18;;
26598;SDS011;14240;51.064;16.612;2023-06-10T02:49:51;30.30;;;15.48;;
26598;SDS011;14240;51.064;16.612;2023-06-10T02:52:17;36.15;;;15.52;;
26598;SDS011;14240;51.064;16.612;2023-06-10T02:54:43;32.83;;;15.30;;
26598;SDS011;14240;51.064;16.612;2023-06-10T02:57:13;28.02;;;14.48;;
26598;SDS011;14240;51.064;16.612;2023-06-10T02:59:46;32.40;;;15.75;;
26598;SDS011;14240;51.064;16.612;2023-06-10T03:02:12;38.20;;;16.55;;
26598;SDS011;14240;51.064;16.612;2023-06-10T03:04:37;33.63;;;15.82;;
26598;SDS011;14240;51.064;16.612;2023-06-10T03:07:03;37.70;;;17.13;;
26598;SDS011;14240;51.064;16.612;2023-06-10T03:09:32;31.88;;;16.77;;
26598;SDS011;14240;51.064;16.612;2023-06-10T03:12:00;34.15;;;18.50;;
26598;SDS011;14240;51.064;16.612;2023-06-10T03:14:26;25.92;;;16.30;;
26598;SDS011;14240;51.064;16.612;2023-06-10T03:16:51;30.05;;;16.63;;
26598;SDS011;14240;51.064;16.612;2023-06-10T03:19:18;37.35;;;18.08;;
26598;SDS011;14240;51.064;16.612;2023-06-10T03:21:49;33.50;;;17.65;;
26598;SDS011;14240;51.064;16.612;2023-06-10T03:24:19;30.58;;;15.85;;
26598;SDS011;14240;51.064;16.612;2023-06-10T03:26:46;44.60;;;18.08;;
26598;SDS011;14240;51.064;16.612;2023-06-10T03:29:12;33.47;;;16.15;;
26598;SDS011;14240;51.064;16.612;2023-06-10T03:31:38;53.03;;;18.75;;
26598;SDS011;14240;51.064;16.612;2023-06-10T03:34:04;34.17;;;18.75;;
26598;SDS011;14240;51.064;16.612;2023-06-10T03:36:36;36.75;;;18.52;;
26598;SDS011;14240;51.064;16.612;2023-06-10T03:39:03;33.80;;;18.20;;
26598;SDS011;14240;51.064;16.612;2023-06-10T03:41:28;39.97;;;18.48;;
26598;SDS011;14240;51.064;16.612;2023-06-10T03:43:55;35.17;;;18.33;;
26598;SDS011;14240;51.064;16.612;2023-06-10T03:46:21;37.28;;;17.98;;
26598;SDS011;14240;51.064;16.612;2023-06-10T03:48:46;29.13;;;17.08;;
26598;SDS011;14240;51.064;16.612;2023-06-10T03:51:13;34.67;;;19.23;;
26598;SDS011;14240;51.064;16.612;2023-06-10T03:53:39;36.88;;;18.17;;
26598;SDS011;14240;51.064;16.612;2023-06-10T03:56:08;34.30;;;18.40;;
26598;SDS011;14240;51.064;16.612;2023-06-10T03:58:34;41.28;;;17.65;;
26598;SDS011;14240;51.064;16.612;2023-06-10T04:01:00;37.28;;;18.42;;
26598;SDS011;14240;51.064;16.612;2023-06-10T04:03:28;36.80;;;18.92;;
26598;SDS011;14240;51.064;16.612;2023-06-10T04:05:54;40.50;;;19.40;;
26598;SDS011;14240;51.064;16.612;2023-06-10T04:08:19;38.50;;;19.98;;
26598;SDS011;14240;51.064;16.612;2023-06-10T04:10:46;34.28;;;19.75;;
26598;SDS011;14240;51.064;16.612;2023-06-10T04:13:14;36.03;;;20.25;;
26598;SDS011;14240;51.064;16.612;2023-06-10T04:15:40;41.92;;;19.67;;
26598;SDS011;14240;51.064;16.612;2023-06-10T04:18:06;33.42;;;19.92;;
26598;SDS011;14240;51.064;16.612;2023-06-10T04:20:32;43.40;;;20.33;;
26598;SDS011;14240;51.064;16.612;2023-06-10T04:22:58;37.70;;;20.67;;
26598;SDS011;14240;51.064;16.612;2023-06-10T04:25:24;46.20;;;20.77;;
26598;SDS011;14240;51.064;16.612;2023-06-10T04:27:51;36.17;;;19.83;;
26598;SDS011;14240;51.064;16.612;2023-06-10T04:30:17;40.22;;;21.40;;
26598;SDS011;14240;51.064;16.612;2023-06-10T04:32:43;34.80;;;20.50;;
26598;SDS011;14240;51.064;16.612;2023-06-10T04:35:12;36.63;;;20.13;;
26598;SDS011;14240;51.064;16.612;2023-06-10T04:37:41;39.80;;;20.92;;
26598;SDS011;14240;51.064;16.612;2023-06-10T04:40:08;46.10;;;21.65;;
26598;SDS011;14240;51.064;16.612;2023-06-10T04:42:36;46.22;;;22.23;;
26598;SDS011;14240;51.064;16.612;2023-06-10T04:45:02;54.17;;;22.75;;
26598;SDS011;14240;51.064;16.612;2023-06-10T04:47:29;35.72;;;22.63;;
26598;SDS011;14240;51.064;16.612;2023-06-10T04:49:59;43.80;;;24.38;;
26598;SDS011;14240;51.064;16.612;2023-06-10T04:52:25;43.28;;;22.85;;
26598;SDS011;14240;51.064;16.612;2023-06-10T04:54:50;42.70;;;23.27;;
26598;SDS011;14240;51.064;16.612;2023-06-10T04:57:16;39.17;;;22.52;;
26598;SDS011;14240;51.064;16.612;2023-06-10T04:59:43;46.13;;;23.98;;
26598;SDS011;14240;51.064;16.612;2023-06-10T05:02:09;46.08;;;23.60;;
26598;SDS011;14240;51.064;16.612;2023-06-10T05:04:37;38.70;;;21.90;;
26598;SDS011;14240;51.064;16.612;2023-06-10T05:07:02;44.30;;;23.98;;
26598;SDS011;14240;51.064;16.612;2023-06-10T05:09:29;44.20;;;22.95;;
26598;SDS011;14240;51.064;16.612;2023-06-10T05:12:00;38.03;;;23.10;;
26598;SDS011;14240;51.064;16.612;2023-06-10T05:14:30;40.53;;;22.38;;
26598;SDS011;14240;51.064;16.612;2023-06-10T05:16:56;33.58;;;21.95;;
26598;SDS011;14240;51.064;16.612;2023-06-10T05:19:23;46.17;;;23.27;;
26598;SDS011;14240;51.064;16.612;2023-06-10T05:21:54;38.15;;;23.52;;
26598;SDS011;14240;51.064;16.612;2023-06-10T05:24:21;39.92;;;22.75;;
26598;SDS011;14240;51.064;16.612;2023-06-10T05:26:49;40.47;;;23.33;;
26598;SDS011;14240;51.064;16.612;2023-06-10T05:29:15;40.70;;;23.88;;
26598;SDS011;14240;51.064;16.612;2023-06-10T05:31:41;40.45;;;21.92;;
26598;SDS011;14240;51.064;16.612;2023-06-10T05:34:07;39.67;;;24.02;;
26598;SDS011;14240;51.064;16.612;2023-06-10T05:36:33;35.70;;;22.48;;
26598;SDS011;14240;51.064;16.612;2023-06-10T05:39:00;42.25;;;24.48;;
26598;SDS011;14240;51.064;16.612;2023-06-10T05:41:27;42.60;;;24.00;;
26598;SDS011;14240;51.064;16.612;2023-06-10T05:43:53;52.05;;;25.65;;
26598;SDS011;14240;51.064;16.612;2023-06-10T05:46:19;41.53;;;24.48;;
26598;SDS011;14240;51.064;16.612;2023-06-10T05:48:45;44.08;;;25.27;;
26598;SDS011;14240;51.064;16.612;2023-06-10T05:51:11;43.72;;;24.50;;
26598;SDS011;14240;51.064;16.612;2023-06-10T05:53:36;44.25;;;24.67;;
26598;SDS011;14240;51.064;16.612;2023-06-10T05:56:03;40.28;;;25.88;;
26598;SDS011;14240;51.064;16.612;2023-06-10T05:58:30;40.65;;;24.95;;
26598;SDS011;14240;51.064;16.612;2023-06-10T06:00:56;36.60;;;24.67;;
26598;SDS011;14240;51.064;16.612;2023-06-10T06:03:26;41.17;;;24.85;;
26598;SDS011;14240;51.064;16.612;2023-06-10T06:05:53;38.53;;;23.13;;
26598;SDS011;14240;51.064;16.612;2023-06-10T06:08:19;40.10;;;25.52;;
26598;SDS011;14240;51.064;16.612;2023-06-10T06:10:46;38.92;;;24.80;;
26598;SDS011;14240;51.064;16.612;2023-06-10T06:13:15;38.65;;;24.80;;
26598;SDS011;14240;51.064;16.612;2023-06-10T06:15:41;37.38;;;23.67;;
26598;SDS011;14240;51.064;16.612;2023-06-10T06:18:06;35.75;;;23.27;;
26598;SDS011;14240;51.064;16.612;2023-06-10T06:20:32;35.67;;;21.90;;
26598;SDS011;14240;51.064;16.612;2023-06-10T06:22:59;34.88;;;21.48;;
26598;SDS011;14240;51.064;16.612;2023-06-10T06:25:26;36.58;;;21.00;;
26598;SDS011;14240;51.064;16.612;2023-06-10T06:27:53;33.20;;;20.60;;
26598;SDS011;14240;51.064;16.612;2023-06-10T06:30:25;29.00;;;20.52;;
26598;SDS011;14240;51.064;16.612;2023-06-10T06:32:51;34.40;;;21.08;;
26598;SDS011;14240;51.064;16.612;2023-06-10T06:35:16;28.70;;;20.33;;
26598;SDS011;14240;51.064;16.612;2023-06-10T06:37:43;33.95;;;21.48;;
26598;SDS011;14240;51.064;16.612;2023-06-10T06:40:11;36.65;;;22.58;;
26598;SDS011;14240;51.064;16.612;2023-06-10T06:42:40;33.92;;;20.50;;
26598;SDS011;14240;51.064;16.612;2023-06-10T06:45:07;30.85;;;21.60;;
26598;SDS011;14240;51.064;16.612;2023-06-10T06:47:33;28.75;;;19.70;;
26598;SDS011;14240;51.064;16.612;2023-06-10T06:49:58;30.95;;;21.55;;
26598;SDS011;14240;51.064;16.612;2023-06-10T06:52:25;29.88;;;20.88;;
26598;SDS011;14240;51.064;16.612;2023-06-10T06:54:52;29.38;;;20.20;;
26598;SDS011;14240;51.064;16.612;2023-06-10T06:59:48;27.15;;;18.98;;
26598;SDS011;14240;51.064;16.612;2023-06-10T07:02:14;25.27;;;18.00;;
26598;SDS011;14240;51.064;16.612;2023-06-10T07:04:44;25.65;;;17.95;;
26598;SDS011;14240;51.064;16.612;2023-06-10T07:07:16;24.88;;;18.92;;
26598;SDS011;14240;51.064;16.612;2023-06-10T07:09:42;23.33;;;18.08;;
26598;SDS011;14240;51.064;16.612;2023-06-10T07:12:08;24.90;;;17.90;;
26598;SDS011;14240;51.064;16.612;2023-06-10T07:14:35;26.88;;;19.55;;
26598;SDS011;14240;51.064;16.612;2023-06-10T07:17:02;26.00;;;17.50;;
26598;SDS011;14240;51.064;16.612;2023-06-10T07:19:28;24.40;;;18.25;;
26598;SDS011;14240;51.064;16.612;2023-06-10T07:21:54;20.35;;;17.05;;
26598;SDS011;14240;51.064;16.612;2023-06-10T07:24:27;21.05;;;17.27;;
26598;SDS011;14240;51.064;16.612;2023-06-10T07:26:52;21.23;;;16.10;;
26598;SDS011;14240;51.064;16.612;2023-06-10T07:29:29;20.95;;;15.68;;
26598;SDS011;14240;51.064;16.612;2023-06-10T07:31:54;22.17;;;16.38;;
26598;SDS011;14240;51.064;16.612;2023-06-10T07:34:20;20.25;;;16.58;;
26598;SDS011;14240;51.064;16.612;2023-06-10T07:36:52;22.13;;;17.15;;
26598;SDS011;14240;51.064;16.612;2023-06-10T07:39:18;25.83;;;16.52;;
26598;SDS011;14240;51.064;16.612;2023-06-10T07:41:44;30.33;;;18.25;;
26598;SDS011;14240;51.064;16.612;2023-06-10T07:44:09;23.45;;;17.90;;
26598;SDS011;14240;51.064;16.612;2023-06-10T07:46:35;20.33;;;16.95;;
26598;SDS011;14240;51.064;16.612;2023-06-10T07:49:00;24.98;;;17.80;;
26598;SDS011;14240;51.064;16.612;2023-06-10T07:51:27;20.15;;;16.70;;
26598;SDS011;14240;51.064;16.612;2023-06-10T07:53:52;24.45;;;16.73;;
26598;SDS011;14240;51.064;16.612;2023-06-10T07:56:18;21.45;;;16.42;;
26598;SDS011;14240;51.064;16.612;2023-06-10T07:58:45;19.85;;;15.25;;
26598;SDS011;14240;51.064;16.612;2023-06-10T08:01:11;19.75;;;16.75;;
26598;SDS011;14240;51.064;16.612;2023-06-10T08:03:36;27.13;;;17.17;;
26598;SDS011;14240;51.064;16.612;2023-06-10T08:06:03;19.85;;;16.05;;
26598;SDS011;14240;51.064;16.612;2023-06-10T08:08:33;19.00;;;16.40;;
26598;SDS011;14240;51.064;16.612;2023-06-10T08:10:59;23.05;;;16.67;;
26598;SDS011;14240;51.064;16.612;2023-06-10T08:13:25;24.17;;;17.27;;
26598;SDS011;14240;51.064;16.612;2023-06-10T08:15:51;18.75;;;16.75;;
26598;SDS011;14240;51.064;16.612;2023-06-10T08:20:44;25.60;;;16.45;;
26598;SDS011;14240;51.064;16.612;2023-06-10T08:23:10;20.70;;;17.23;;
26598;SDS011;14240;51.064;16.612;2023-06-10T08:25:35;21.33;;;17.15;;
26598;SDS011;14240;51.064;16.612;2023-06-10T08:28:05;22.95;;;18.15;;
26598;SDS011;14240;51.064;16.612;2023-06-10T08:30:31;27.88;;;18.45;;
26598;SDS011;14240;51.064;16.612;2023-06-10T08:32:56;20.90;;;16.85;;
26598;SDS011;14240;51.064;16.612;2023-06-10T08:35:22;21.35;;;16.02;;
26598;SDS011;14240;51.064;16.612;2023-06-10T08:37:47;22.15;;;17.20;;
26598;SDS011;14240;51.064;16.612;2023-06-10T08:40:13;27.17;;;18.15;;
26598;SDS011;14240;51.064;16.612;2023-06-10T08:42:39;19.30;;;16.83;;
26598;SDS011;14240;51.064;16.612;2023-06-10T08:45:32;15.77;;;13.00;;
26598;SDS011;14240;51.064;16.612;2023-06-10T08:48:05;19.27;;;12.02;;
26598;SDS011;14240;51.064;16.612;2023-06-10T08:53:05;14.25;;;11.48;;
26598;SDS011;14240;51.064;16.612;2023-06-10T08:55:32;16.42;;;11.75;;
26598;SDS011;14240;51.064;16.612;2023-06-10T08:58:00;16.27;;;12.27;;
26598;SDS011;14240;51.064;16.612;2023-06-10T09:00:26;17.08;;;11.70;;
26598;SDS011;14240;51.064;16.612;2023-06-10T09:03:00;12.85;;;9.70;;
26598;SDS011;14240;51.064;16.612;2023-06-10T09:05:28;16.17;;;11.27;;
26598;SDS011;14240;51.064;16.612;2023-06-10T09:08:05;10.48;;;9.27;;
26598;SDS011;14240;51.064;16.612;2023-06-10T09:10:33;13.32;;;8.63;;
26598;SDS011;14240;51.064;16.612;2023-06-10T09:12:59;11.85;;;7.53;;
26598;SDS011;14240;51.064;16.612;2023-06-10T09:15:25;9.20;;;7.80;;
26598;SDS011;14240;51.064;16.612;2023-06-10T09:17:50;11.18;;;7.88;;
26598;SDS011;14240;51.064;16.612;2023-06-10T09:20:16;7.28;;;6.43;;
26598;SDS011;14240;51.064;16.612;2023-06-10T09:22:43;9.48;;;7.80;;
26598;SDS011;14240;51.064;16.612;2023-06-10T09:25:16;9.90;;;7.68;;
26598;SDS011;14240;51.064;16.612;2023-06-10T09:33:19;9.15;;;7.22;;
26598;SDS011;14240;51.064;16.612;2023-06-10T09:35:51;11.18;;;7.68;;
26598;SDS011;14240;51.064;16.612;2023-06-10T09:38:21;10.43;;;7.22;;
26598;SDS011;14240;51.064;16.612;2023-06-10T09:40:51;8.50;;;7.63;;
26598;SDS011;14240;51.064;16.612;2023-06-10T09:43:21;12.00;;;8.20;;
26598;SDS011;14240;51.064;16.612;2023-06-10T09:45:48;12.48;;;8.63;;
26598;SDS011;14240;51.064;16.612;2023-06-10T09:48:18;10.50;;;9.02;;
26598;SDS011;14240;51.064;16.612;2023-06-10T09:50:44;12.63;;;9.32;;
26598;SDS011;14240;51.064;16.612;2023-06-10T09:53:11;13.53;;;11.10;;
26598;SDS011;14240;51.064;16.612;2023-06-10T09:55:40;13.48;;;9.73;;
26598;SDS011;14240;51.064;16.612;2023-06-10T09:58:07;14.30;;;10.60;;
26598;SDS011;14240;51.064;16.612;2023-06-10T10:00:35;13.88;;;10.95;;
26598;SDS011;14240;51.064;16.612;2023-06-10T10:03:06;12.68;;;11.25;;
26598;SDS011;14240;51.064;16.612;2023-06-10T10:05:32;15.23;;;10.30;;
26598;SDS011;14240;51.064;16.612;2023-06-10T10:07:58;12.70;;;11.05;;
26598;SDS011;14240;51.064;16.612;2023-06-10T10:10:24;12.88;;;11.27;;
26598;SDS011;14240;51.064;16.612;2023-06-10T10:12:53;15.85;;;11.05;;
26598;SDS011;14240;51.064;16.612;2023-06-10T10:15:21;12.70;;;10.50;;
26598;SDS011;14240;51.064;16.612;2023-06-10T10:17:56;13.45;;;11.15;;
26598;SDS011;14240;51.064;16.612;2023-06-10T10:20:33;16.55;;;12.95;;
26598;SDS011;14240;51.064;16.612;2023-06-10T10:23:02;16.95;;;14.00;;
26598;SDS011;14240;51.064;16.612;2023-06-10T10:25:32;17.45;;;13.55;;
26598;SDS011;14240;51.064;16.612;2023-06-10T10:30:42;14.75;;;13.07;;
26598;SDS011;14240;51.064;16.612;2023-06-10T10:33:19;15.63;;;12.27;;
26598;SDS011;14240;51.064;16.612;2023-06-10T10:35:48;15.13;;;13.18;;
26598;SDS011;14240;51.064;16.612;2023-06-10T10:38:15;17.90;;;12.88;;
26598;SDS011;14240;51.064;16.612;2023-06-10T10:40:45;15.48;;;12.60;;
26598;SDS011;14240;51.064;16.612;2023-06-10T10:43:13;16.17;;;13.10;;
26598;SDS011;14240;51.064;16.612;2023-06-10T10:45:45;16.50;;;13.85;;
26598;SDS011;14240;51.064;16.612;2023-06-10T10:48:26;13.70;;;12.30;;
26598;SDS011;14240;51.064;16.612;2023-06-10T10:51:00;14.30;;;11.73;;
26598;SDS011;14240;51.064;16.612;2023-06-10T10:53:29;12.98;;;11.30;;
26598;SDS011;14240;51.064;16.612;2023-06-10T10:56:05;12.88;;;11.25;;
26598;SDS011;14240;51.064;16.612;2023-06-10T10:58:34;11.27;;;10.15;;
26598;SDS011;14240;51.064;16.612;2023-06-10T11:01:09;13.50;;;11.50;;
26598;SDS011;14240;51.064;16.612;2023-06-10T11:03:45;12.00;;;10.40;;
26598;SDS011;14240;51.064;16.612;2023-06-10T11:06:17;13.43;;;10.77;;
26598;SDS011;14240;51.064;16.612;2023-06-10T11:08:45;12.75;;;10.48;;
26598;SDS011;14240;51.064;16.612;2023-06-10T11:11:24;15.02;;;10.68;;
26598;SDS011;14240;51.064;16.612;2023-06-10T11:16:29;13.77;;;9.60;;
26598;SDS011;14240;51.064;16.612;2023-06-10T11:19:03;13.38;;;9.77;;
26598;SDS011;14240;51.064;16.612;2023-06-10T11:21:59;11.20;;;7.97;;
26598;SDS011;14240;51.064;16.612;2023-06-10T11:24:24;10.85;;;8.10;;
26598;SDS011;14240;51.064;16.612;2023-06-10T11:26:51;9.27;;;8.02;;
26598;SDS011;14240;51.064;16.612;2023-06-10T11:29:19;9.82;;;8.20;;
26598;SDS011;14240;51.064;16.612;2023-06-10T11:31:48;12.82;;;8.98;;
26598;SDS011;14240;51.064;16.612;2023-06-10T11:34:15;10.98;;;8.32;;
26598;SDS011;14240;51.064;16.612;2023-06-10T11:36:48;9.63;;;8.32;;
26598;SDS011;14240;51.064;16.612;2023-06-10T11:39:15;11.23;;;8.03;;
26598;SDS011;14240;51.064;16.612;2023-06-10T11:41:42;9.98;;;6.82;;
26598;SDS011;14240;51.064;16.612;2023-06-10T11:44:09;8.88;;;6.85;;
26598;SDS011;14240;51.064;16.612;2023-06-10T11:46:36;9.60;;;7.20;;
26598;SDS011;14240;51.064;16.612;2023-06-10T11:49:03;14.48;;;7.38;;
26598;SDS011;14240;51.064;16.612;2023-06-10T11:51:39;7.78;;;6.88;;
26598;SDS011;14240;51.064;16.612;2023-06-10T11:54:09;10.73;;;5.75;;
26598;SDS011;14240;51.064;16.612;2023-06-10T11:56:35;10.10;;;6.05;;
26598;SDS011;14240;51.064;16.612;2023-06-10T11:59:02;9.43;;;6.22;;
26598;SDS011;14240;51.064;16.612;2023-06-10T12:01:30;9.50;;;6.68;;
26598;SDS011;14240;51.064;16.612;2023-06-10T12:06:25;9.18;;;6.43;;
26598;SDS011;14240;51.064;16.612;2023-06-10T12:08:51;9.40;;;6.35;;
26598;SDS011;14240;51.064;16.612;2023-06-10T12:11:18;8.67;;;6.50;;
26598;SDS011;14240;51.064;16.612;2023-06-10T12:13:47;8.20;;;6.25;;
26598;SDS011;14240;51.064;16.612;2023-06-10T12:16:16;8.70;;;6.90;;
26598;SDS011;14240;51.064;16.612;2023-06-10T12:18:46;10.38;;;6.13;;
26598;SDS011;14240;51.064;16.612;2023-06-10T12:21:15;9.77;;;5.78;;
26598;SDS011;14240;51.064;16.612;2023-06-10T12:23:59;9.90;;;6.57;;
26598;SDS011;14240;51.064;16.612;2023-06-10T12:26:36;12.88;;;6.80;;
26598;SDS011;14240;51.064;16.612;2023-06-10T12:29:20;7.55;;;6.07;;
26598;SDS011;14240;51.064;16.612;2023-06-10T12:32:00;10.73;;;6.85;;
26598;SDS011;14240;51.064;16.612;2023-06-10T12:34:31;12.73;;;6.45;;
26598;SDS011;14240;51.064;16.612;2023-06-10T12:37:00;10.38;;;6.00;;
26598;SDS011;14240;51.064;16.612;2023-06-10T12:39:27;10.18;;;6.18;;
26598;SDS011;14240;51.064;16.612;2023-06-10T12:41:53;9.25;;;5.93;;
26598;SDS011;14240;51.064;16.612;2023-06-10T12:44:28;12.18;;;6.70;;
26598;SDS011;14240;51.064;16.612;2023-06-10T12:46:54;13.68;;;6.40;;
26598;SDS011;14240;51.064;16.612;2023-06-10T12:49:20;8.82;;;6.57;;
26598;SDS011;14240;51.064;16.612;2023-06-10T12:51:46;8.32;;;6.25;;
26598;SDS011;14240;51.064;16.612;2023-06-10T12:54:12;8.18;;;5.65;;
26598;SDS011;14240;51.064;16.612;2023-06-10T12:56:38;7.85;;;5.95;;
26598;SDS011;14240;51.064;16.612;2023-06-10T12:59:04;9.55;;;5.68;;
26598;SDS011;14240;51.064;16.612;2023-06-10T13:01:31;10.48;;;6.03;;
26598;SDS011;14240;51.064;16.612;2023-06-10T13:03:58;10.50;;;5.65;;
26598;SDS011;14240;51.064;16.612;2023-06-10T13:06:24;9.52;;;6.18;;
26598;SDS011;14240;51.064;16.612;2023-06-10T13:08:50;13.10;;;7.18;;
26598;SDS011;14240;51.064;16.612;2023-06-10T13:11:16;9.45;;;6.80;;
26598;SDS011;14240;51.064;16.612;2023-06-10T13:13:42;9.85;;;8.85;;
26598;SDS011;14240;51.064;16.612;2023-06-10T13:16:08;8.90;;;8.00;;
26598;SDS011;14240;51.064;16.612;2023-06-10T13:18:35;9.32;;;7.97;;
26598;SDS011;14240;51.064;16.612;2023-06-10T13:21:03;10.25;;;7.75;;
26598;SDS011;14240;51.064;16.612;2023-06-10T13:23:29;9.27;;;7.75;;
26598;SDS011;14240;51.064;16.612;2023-06-10T13:25:58;9.73;;;8.73;;
26598;SDS011;14240;51.064;16.612;2023-06-10T13:28:24;8.98;;;7.75;;
26598;SDS011;14240;51.064;16.612;2023-06-10T13:30:50;10.65;;;8.13;;
26598;SDS011;14240;51.064;16.612;2023-06-10T13:33:16;6.60;;;5.40;;
26598;SDS011;14240;51.064;16.612;2023-06-10T13:35:41;7.03;;;6.25;;
26598;SDS011;14240;51.064;16.612;2023-06-10T13:38:15;8.35;;;6.10;;
26598;SDS011;14240;51.064;16.612;2023-06-10T13:40:41;12.10;;;6.40;;
26598;SDS011;14240;51.064;16.612;2023-06-10T13:43:09;11.85;;;6.18;;
26598;SDS011;14240;51.064;16.612;2023-06-10T13:45:41;10.13;;;5.97;;
26598;SDS011;14240;51.064;16.612;2023-06-10T13:48:10;7.40;;;5.47;;
26598;SDS011;14240;51.064;16.612;2023-06-10T13:50:42;10.15;;;4.80;;
26598;SDS011;14240;51.064;16.612;2023-06-10T13:53:12;7.38;;;5.65;;
26598;SDS011;14240;51.064;16.612;2023-06-10T13:55:41;8.93;;;4.88;;
26598;SDS011;14240;51.064;16.612;2023-06-10T13:58:10;8.35;;;5.35;;
26598;SDS011;14240;51.064;16.612;2023-06-10T14:00:41;7.28;;;5.03;;
26598;SDS011;14240;51.064;16.612;2023-06-10T14:03:46;10.23;;;4.35;;
26598;SDS011;14240;51.064;16.612;2023-06-10T14:06:12;7.37;;;4.33;;
26598;SDS011;14240;51.064;16.612;2023-06-10T14:08:43;8.93;;;4.35;;
26598;SDS011;14240;51.064;16.612;2023-06-10T14:11:15;11.27;;;4.40;;
26598;SDS011;14240;51.064;16.612;2023-06-10T14:13:44;7.75;;;4.63;;
26598;SDS011;14240;51.064;16.612;2023-06-10T14:16:10;11.38;;;4.97;;
26598;SDS011;14240;51.064;16.612;2023-06-10T14:18:37;8.93;;;4.80;;
26598;SDS011;14240;51.064;16.612;2023-06-10T14:21:06;8.50;;;4.32;;
26598;SDS011;14240;51.064;16.612;2023-06-10T14:23:32;10.15;;;4.90;;
26598;SDS011;14240;51.064;16.612;2023-06-10T14:26:04;9.95;;;4.60;;
26598;SDS011;14240;51.064;16.612;2023-06-10T14:29:23;7.93;;;4.45;;
26598;SDS011;14240;51.064;16.612;2023-06-10T14:31:52;11.13;;;4.35;;
26598;SDS011;14240;51.064;16.612;2023-06-10T14:34:24;6.47;;;5.13;;
26598;SDS011;14240;51.064;16.612;2023-06-10T14:36:53;10.73;;;4.55;;
26598;SDS011;14240;51.064;16.612;2023-06-10T14:39:19;10.43;;;4.18;;
26598;SDS011;14240;51.064;16.612;2023-06-10T14:41:45;6.57;;;4.40;;
26598;SDS011;14240;51.064;16.612;2023-06-10T14:44:11;9.38;;;4.75;;
26598;SDS011;14240;51.064;16.612;2023-06-10T14:46:36;11.18;;;5.00;;